Time;durP1;ratioP1;P1;durP2;ratioP2;P2;SDS_P1;SDS_P2;PMS_P1;PMS_P2;Temp;Humidity;BMP_temperature;BMP_pressure;BME280_temperature;BME280_humidity;BME280_pressure;Samples;Min_cycle;Max_cycle;Signal;HPM_P1;HPM_P2
2023/02/01 00:00:34;;;;;;;34.35;9.40;;;;;;;4.76;100.00;102218.94;5243360;28;20489;-74
2023/02/01 00:03:05;;;;;;;35.17;8.85;;;;;;;4.83;100.00;102220.28;5246189;28;20036;-75
2023/02/01 00:05:35;;;;;;;32.75;8.55;;;;;;;4.86;100.00;102216.56;5246219;28;20028;-75
2023/02/01 00:08:06;;;;;;;29.85;8.35;;;;;;;4.94;100.00;102208.97;5247250;28;20069;-75
2023/02/01 00:10:36;;;;;;;34.28;8.52;;;;;;;5.00;100.00;102210.38;5251020;28;20023;-74
2023/02/01 00:13:07;;;;;;;36.15;8.82;;;;;;;5.07;100.00;102203.69;5256567;28;20029;-74
2023/02/01 00:15:37;;;;;;;35.80;9.93;;;;;;;5.12;100.00;102205.16;5255805;28;20023;-74
2023/02/01 00:18:07;;;;;;;36.25;8.52;;;;;;;5.16;100.00;102196.00;5255309;28;20069;-75
2023/02/01 00:20:38;;;;;;;34.03;8.02;;;;;;;5.19;100.00;102197.63;5247028;28;20047;-75
2023/02/01 00:23:09;;;;;;;27.15;7.47;;;;;;;5.25;100.00;102191.03;5246897;28;20032;-74
2023/02/01 00:25:40;;;;;;;44.35;8.10;;;;;;;5.25;100.00;102185.72;5245942;28;20036;-75
2023/02/01 00:28:12;;;;;;;31.02;8.50;;;;;;;5.26;100.00;102188.28;5246689;28;20025;-75
2023/02/01 00:30:43;;;;;;;30.90;7.70;;;;;;;5.29;100.00;102173.94;5246968;28;20474;-74
2023/02/01 00:33:14;;;;;;;32.20;8.20;;;;;;;5.31;100.00;102161.38;5247056;28;20099;-75
2023/02/01 00:35:45;;;;;;;31.17;9.27;;;;;;;5.33;100.00;102154.16;5245619;28;20028;-75
2023/02/01 00:38:15;;;;;;;38.53;9.27;;;;;;;5.38;100.00;102144.91;5260243;28;20085;-75
2023/02/01 00:40:46;;;;;;;31.52;7.47;;;;;;;5.40;100.00;102150.13;5258809;28;20040;-74
2023/02/01 00:43:16;;;;;;;31.00;8.10;;;;;;;5.45;100.00;102148.00;5260414;28;20027;-74
2023/02/01 00:45:47;;;;;;;29.35;7.15;;;;;;;5.47;100.00;102143.44;5247038;28;20035;-73
2023/02/01 00:48:17;;;;;;;30.42;8.23;;;;;;;5.49;100.00;102133.56;5246280;28;20070;-74
2023/02/01 00:50:47;;;;;;;32.17;7.85;;;;;;;5.48;100.00;102125.69;5247968;28;20033;-75
2023/02/01 00:53:18;;;;;;;25.02;7.18;;;;;;;5.45;100.00;102134.72;5258091;28;20644;-74
2023/02/01 00:55:48;;;;;;;31.10;7.03;;;;;;;5.37;100.00;102129.91;5246805;28;20035;-74
2023/02/01 00:58:19;;;;;;;35.13;6.82;;;;;;;5.30;100.00;102133.91;5245560;28;20515;-75
2023/02/01 01:00:50;;;;;;;23.80;6.05;;;;;;;5.17;100.00;102136.53;5247694;28;20055;-74
2023/02/01 01:03:20;;;;;;;29.70;6.88;;;;;;;5.09;100.00;102145.97;5258281;28;20107;-75
2023/02/01 01:05:50;;;;;;;28.48;6.10;;;;;;;5.02;100.00;102156.16;5253968;28;20031;-75
2023/02/01 01:08:21;;;;;;;31.20;7.43;;;;;;;4.98;100.00;102169.75;5254563;28;20108;-74
2023/02/01 01:10:52;;;;;;;28.25;6.22;;;;;;;4.98;100.00;102164.41;5246147;28;20103;-74
2023/02/01 01:13:23;;;;;;;33.92;7.13;;;;;;;5.01;100.00;102167.72;5245462;28;20028;-74
2023/02/01 01:15:53;;;;;;;29.60;5.93;;;;;;;5.02;100.00;102165.91;5248131;28;20078;-75
2023/02/01 01:18:24;;;;;;;25.05;6.03;;;;;;;5.02;100.00;102160.59;5245994;28;20392;-74
2023/02/01 01:20:54;;;;;;;33.38;6.30;;;;;;;5.04;100.00;102161.34;5246353;28;20106;-74
2023/02/01 01:23:25;;;;;;;22.42;5.80;;;;;;;5.02;100.00;102160.59;5247744;28;20032;-75
2023/02/01 01:25:56;;;;;;;27.65;6.80;;;;;;;5.03;100.00;102163.16;5256742;28;20101;-74
2023/02/01 01:28:26;;;;;;;27.60;6.72;;;;;;;5.04;100.00;102166.69;5245692;28;20103;-75
2023/02/01 01:30:57;;;;;;;30.50;5.53;;;;;;;5.01;100.00;102159.72;5245842;28;20035;-74
2023/02/01 01:33:28;;;;;;;31.10;5.53;;;;;;;5.00;100.00;102162.50;5246276;28;20021;-74
2023/02/01 01:35:59;;;;;;;41.58;6.30;;;;;;;4.91;100.00;102162.13;5246212;28;20035;-74
2023/02/01 01:38:30;;;;;;;28.42;6.45;;;;;;;4.87;100.00;102167.72;5245336;28;20020;-74
2023/02/01 01:41:01;;;;;;;31.77;5.57;;;;;;;4.87;100.00;102170.38;5245815;28;20031;-74
2023/02/01 01:43:52;;;;;;;27.23;6.13;;;;;;;4.84;100.00;102168.78;5246176;28;20070;-75
2023/02/01 01:46:27;;;;;;;23.52;5.13;;;;;;;4.88;100.00;102174.78;5245342;28;20489;-74
2023/02/01 01:49:17;;;;;;;35.28;5.65;;;;;;;4.96;100.00;102174.28;5246043;28;20070;-75
2023/02/01 01:51:52;;;;;;;30.63;5.40;;;;;;;4.96;100.00;102185.78;5245603;28;20025;-75
2023/02/01 01:54:41;;;;;;;21.08;5.13;;;;;;;5.04;100.00;102180.81;5248253;28;20549;-74
2023/02/01 01:57:20;;;;;;;24.55;4.90;;;;;;;5.14;100.00;102197.06;5252761;28;20040;-74
2023/02/01 01:59:59;;;;;;;30.58;5.00;;;;;;;5.23;100.00;102184.97;5264633;28;20047;-75
2023/02/01 02:02:30;;;;;;;23.25;4.93;;;;;;;5.28;100.00;102198.84;5253684;28;20055;-75
2023/02/01 02:05:01;;;;;;;23.60;4.95;;;;;;;5.23;100.00;102201.78;5253460;28;20048;-74
2023/02/01 02:07:37;;;;;;;21.92;5.13;;;;;;;5.16;100.00;102197.81;5244752;28;20389;-74
2023/02/01 02:10:10;;;;;;;23.00;4.53;;;;;;;5.14;100.00;102197.06;5245115;28;20028;-74
2023/02/01 02:12:43;;;;;;;36.03;6.32;;;;;;;5.08;100.00;102182.34;5244643;28;20450;-74
2023/02/01 02:15:16;;;;;;;27.80;5.25;;;;;;;5.00;100.00;102184.63;5250211;28;20078;-75
2023/02/01 02:18:04;;;;;;;26.60;5.13;;;;;;;4.91;100.00;102182.53;5255876;28;20115;-74
2023/02/01 02:21:00;;;;;;;28.95;5.93;;;;;;;4.82;100.00;102186.66;5245212;28;20039;-75
2023/02/01 02:24:05;;;;;;;32.63;5.30;;;;;;;4.79;100.00;102176.22;5244385;28;20032;-75
2023/02/01 02:26:59;;;;;;;28.00;4.50;;;;;;;4.77;100.00;102178.13;5244563;28;20037;-74
2023/02/01 02:29:54;;;;;;;29.98;5.50;;;;;;;4.73;100.00;102176.59;5258015;28;20023;-74
2023/02/01 02:32:51;;;;;;;39.00;5.32;;;;;;;4.65;100.00;102178.88;5244837;28;20484;-74
2023/02/01 02:35:42;;;;;;;24.13;4.57;;;;;;;4.63;100.00;102173.66;5252656;28;20023;-74
2023/02/01 02:38:28;;;;;;;25.73;3.95;;;;;;;4.59;100.00;102179.25;5247962;28;20028;-75
2023/02/01 02:47:23;;;;;;;18.98;3.60;;;;;;;4.56;100.00;102179.44;5244675;28;20498;-75
2023/02/01 02:47:50;;;;;;;27.15;5.10;;;;;;;4.44;100.00;102178.41;5244509;28;20440;-75
2023/02/01 03:05:22;;;;;;;24.13;4.32;;;;;;;4.35;100.00;102155.91;5264177;28;20034;-75
2023/02/01 03:07:53;;;;;;;24.52;5.57;;;;;;;4.34;100.00;102156.00;5244335;28;20032;-74
2023/02/01 03:10:29;;;;;;;43.70;4.88;;;;;;;4.36;100.00;102162.91;5257810;28;20032;-75
2023/02/01 03:13:08;;;;;;;29.27;4.65;;;;;;;4.36;100.00;102152.28;5244757;28;20447;-74
2023/02/01 03:15:58;;;;;;;23.10;4.45;;;;;;;4.34;100.00;102142.72;5253272;28;20020;-75
2023/02/01 03:18:52;;;;;;;24.98;4.40;;;;;;;4.32;100.00;102149.94;5264789;28;20035;-74
2023/02/01 03:21:31;;;;;;;25.33;3.97;;;;;;;4.31;100.00;102156.16;5252607;28;20097;-74
2023/02/01 03:24:11;;;;;;;20.55;4.18;;;;;;;4.28;100.00;102151.91;5244610;28;20032;-74
2023/02/01 03:26:49;;;;;;;28.48;4.07;;;;;;;4.30;100.00;102159.78;5243658;28;20027;-74
2023/02/01 03:29:27;;;;;;;21.75;3.92;;;;;;;4.29;100.00;102153.63;5256076;28;20436;-74
2023/02/01 03:31:57;;;;;;;33.45;4.38;;;;;;;4.34;100.00;102166.63;5245450;28;20056;-75
2023/02/01 03:34:28;;;;;;;21.67;4.03;;;;;;;4.37;100.00;102162.00;5244443;28;20697;-74
2023/02/01 03:37:17;;;;;;;35.67;5.00;;;;;;;4.40;100.00;102148.50;5247727;28;20020;-75
2023/02/01 03:39:58;;;;;;;26.38;5.53;;;;;;;4.47;100.00;102156.06;5248444;28;20028;-74
2023/02/01 03:42:37;;;;;;;25.73;4.43;;;;;;;4.50;100.00;102150.59;5260059;28;20032;-75
2023/02/01 03:45:35;;;;;;;30.38;4.00;;;;;;;4.51;100.00;102155.78;5261485;28;20055;-75
2023/02/01 03:48:06;;;;;;;29.42;4.22;;;;;;;4.52;100.00;102154.88;5246811;28;20145;-74
2023/02/01 03:50:40;;;;;;;18.27;3.72;;;;;;;4.45;100.00;102156.19;5248280;28;20497;-74
2023/02/01 03:53:16;;;;;;;28.13;5.03;;;;;;;4.40;100.00;102152.97;5247052;28;20029;-75
2023/02/01 03:55:47;;;;;;;28.50;5.00;;;;;;;4.36;100.00;102151.44;5249703;28;20025;-74
2023/02/01 03:58:20;;;;;;;23.83;4.15;;;;;;;4.38;100.00;102153.06;5257368;28;20032;-74
2023/02/01 04:00:54;;;;;;;22.27;4.65;;;;;;;4.42;100.00;102156.41;5267146;28;20032;-74
2023/02/01 04:03:25;;;;;;;26.00;4.10;;;;;;;4.36;100.00;102162.06;5269052;28;20020;-75
2023/02/01 04:05:56;;;;;;;28.55;4.93;;;;;;;4.28;100.00;102162.53;5249574;28;20039;-74
2023/02/01 04:08:27;;;;;;;20.27;5.38;;;;;;;4.24;100.00;102160.16;5247328;28;20481;-74
2023/02/01 04:10:57;;;;;;;16.77;4.13;;;;;;;4.24;100.00;102158.38;5247554;28;20519;-74
2023/02/01 04:13:28;;;;;;;40.97;5.78;;;;;;;4.24;100.00;102150.38;5247822;28;20027;-75
2023/02/01 04:15:58;;;;;;;36.17;5.10;;;;;;;4.26;100.00;102153.78;5259186;28;20052;-74
2023/02/01 04:18:28;;;;;;;31.42;4.68;;;;;;;4.24;100.00;102162.81;5252948;28;20045;-74
2023/02/01 04:20:59;;;;;;;31.52;5.00;;;;;;;4.23;100.00;102161.97;5247448;28;20654;-75
2023/02/01 04:23:31;;;;;;;23.45;4.50;;;;;;;4.25;100.00;102167.19;5247377;28;20580;-75
2023/02/01 04:26:04;;;;;;;26.52;4.22;;;;;;;4.22;100.00;102172.66;5246457;28;20029;-74
2023/02/01 04:28:34;;;;;;;26.65;4.38;;;;;;;4.19;100.00;102170.22;5247124;28;20026;-75
2023/02/01 04:31:05;;;;;;;36.03;5.78;;;;;;;4.16;100.00;102173.91;5246996;28;20028;-74
2023/02/01 04:33:35;;;;;;;34.30;5.35;;;;;;;4.10;100.00;102167.16;5247217;28;20028;-75
2023/02/01 04:36:06;;;;;;;40.47;6.25;;;;;;;4.11;100.00;102168.84;5247653;28;20028;-74
2023/02/01 04:38:36;;;;;;;31.65;4.82;;;;;;;4.07;100.00;102159.38;5247111;28;20048;-75
2023/02/01 04:41:07;;;;;;;38.47;5.15;;;;;;;4.07;100.00;102161.19;5245781;28;20485;-74
2023/02/01 04:43:37;;;;;;;27.20;3.72;;;;;;;4.10;100.00;102164.50;5246729;28;20016;-74
2023/02/01 04:46:08;;;;;;;30.05;4.47;;;;;;;4.11;100.00;102155.56;5245592;28;20191;-74
2023/02/01 04:48:38;;;;;;;42.72;7.70;;;;;;;4.15;100.00;102154.44;5246595;28;20060;-75
2023/02/01 04:51:10;;;;;;;32.60;11.30;;;;;;;4.14;100.00;102154.56;5246863;28;20020;-74
2023/02/01 04:53:40;;;;;;;59.22;15.95;;;;;;;4.12;100.00;102157.31;5245841;28;20029;-75
2023/02/01 04:56:11;;;;;;;40.97;14.52;;;;;;;4.16;100.00;102157.97;5246533;28;20027;-74
2023/02/01 04:58:41;;;;;;;38.78;13.32;;;;;;;4.15;100.00;102153.59;5257607;28;20480;-74
2023/02/01 05:01:12;;;;;;;47.67;11.88;;;;;;;4.16;100.00;102156.16;5246600;28;20028;-75
2023/02/01 05:03:43;;;;;;;44.83;15.65;;;;;;;4.16;100.00;102150.00;5246871;28;20028;-74
2023/02/01 05:06:14;;;;;;;30.80;8.45;;;;;;;4.17;100.00;102151.72;5246696;28;20028;-74
2023/02/01 05:08:44;;;;;;;32.03;5.22;;;;;;;4.18;100.00;102157.88;5246306;28;20021;-75
2023/02/01 05:14:04;;;;;;;31.17;7.25;;;;;;;4.15;100.00;102151.78;5246685;28;20115;-75
2023/02/01 05:16:35;;;;;;;28.63;5.60;;;;;;;4.15;100.00;102148.28;5262572;28;20420;-74
2023/02/01 05:19:05;;;;;;;31.63;4.53;;;;;;;4.19;100.00;102157.78;5260136;28;20041;-74
2023/02/01 05:21:35;;;;;;;26.33;4.72;;;;;;;4.18;100.00;102160.53;5245121;28;20026;-74
2023/02/01 05:24:09;;;;;;;28.48;4.85;;;;;;;4.10;100.00;102156.53;5246483;28;20503;-74
2023/02/01 05:26:40;;;;;;;30.50;5.22;;;;;;;4.08;100.00;102155.78;5245754;28;20039;-74
2023/02/01 05:29:11;;;;;;;28.17;5.47;;;;;;;4.07;100.00;102156.75;5246397;28;20027;-74
2023/02/01 05:31:44;;;;;;;27.70;4.80;;;;;;;4.05;100.00;102158.59;5245301;28;20032;-74
2023/02/01 05:34:16;;;;;;;43.58;6.60;;;;;;;4.01;100.00;102156.22;5246156;28;20477;-74
2023/02/01 05:36:47;;;;;;;26.90;5.43;;;;;;;4.00;100.00;102151.88;5244443;28;20039;-75
2023/02/01 05:39:17;;;;;;;34.92;6.50;;;;;;;4.00;100.00;102146.56;5245128;28;20389;-75
2023/02/01 05:41:48;;;;;;;28.40;5.28;;;;;;;4.04;100.00;102135.66;5245617;28;20477;-74
2023/02/01 05:44:18;;;;;;;30.95;5.93;;;;;;;4.05;100.00;102134.72;5245765;28;20020;-74
2023/02/01 05:46:49;;;;;;;44.10;11.55;;;;;;;4.08;100.00;102142.50;5244246;28;20033;-74
2023/02/01 05:49:20;;;;;;;45.42;12.65;;;;;;;4.08;100.00;102146.97;5245978;28;20040;-74
2023/02/01 05:51:50;;;;;;;69.32;20.75;;;;;;;4.04;100.00;102146.28;5245716;28;20392;-75
2023/02/01 05:54:20;;;;;;;49.80;14.65;;;;;;;3.98;100.00;102161.75;5245358;28;20507;-74
2023/02/01 05:56:51;;;;;;;49.95;11.52;;;;;;;3.99;100.00;102163.44;5245495;28;20173;-74
2023/02/01 05:59:22;;;;;;;55.85;15.48;;;;;;;4.04;100.00;102164.03;5245072;28;20027;-75
2023/02/01 06:01:52;;;;;;;53.92;18.02;;;;;;;4.05;100.00;102165.72;5245424;28;20104;-75
2023/02/01 06:04:23;;;;;;;30.55;8.70;;;;;;;4.05;100.00;102155.94;5245612;28;20021;-75
2023/02/01 06:06:53;;;;;;;47.63;13.68;;;;;;;4.05;100.00;102163.06;5243689;28;20020;-74
2023/02/01 06:09:24;;;;;;;37.63;12.40;;;;;;;4.05;100.00;102179.00;5257801;28;20021;-74
2023/02/01 06:11:54;;;;;;;45.05;12.57;;;;;;;4.02;100.00;102169.44;5244196;28;20040;-75
2023/02/01 06:14:25;;;;;;;39.33;9.05;;;;;;;4.01;100.00;102182.78;5245671;28;20103;-74
2023/02/01 06:16:55;;;;;;;34.95;11.70;;;;;;;3.99;100.00;102179.38;5261996;28;20024;-74
2023/02/01 06:19:26;;;;;;;46.72;17.88;;;;;;;3.97;100.00;102179.47;5245023;28;20058;-74
2023/02/01 06:21:56;;;;;;;43.38;10.35;;;;;;;3.96;100.00;102180.41;5245392;28;20032;-74
2023/02/01 06:24:27;;;;;;;49.53;14.75;;;;;;;3.98;100.00;102175.88;5245257;28;20032;-74
2023/02/01 06:26:57;;;;;;;36.67;8.60;;;;;;;3.97;100.00;102176.81;5258452;28;20111;-75
2023/02/01 06:29:28;;;;;;;53.15;16.77;;;;;;;3.98;100.00;102173.22;5245115;28;20028;-74
2023/02/01 06:31:59;;;;;;;26.70;6.60;;;;;;;3.96;100.00;102160.97;5244506;28;20130;-75
2023/02/01 06:34:29;;;;;;;37.83;5.68;;;;;;;3.91;100.00;102158.56;5244229;28;20481;-74
2023/02/01 06:36:59;;;;;;;35.47;9.57;;;;;;;3.89;100.00;102163.97;5245681;28;20024;-74
2023/02/01 06:39:30;;;;;;;44.65;6.95;;;;;;;3.95;100.00;102167.22;5243670;28;20095;-74
2023/02/01 06:42:01;;;;;;;76.20;26.10;;;;;;;3.95;100.00;102162.75;5244922;28;20115;-74
2023/02/01 06:44:31;;;;;;;59.70;17.33;;;;;;;3.96;100.00;102155.66;5244325;28;20476;-75
2023/02/01 06:47:04;;;;;;;45.30;9.75;;;;;;;3.95;100.00;102161.91;5244624;28;20034;-74
2023/02/01 06:49:34;;;;;;;50.65;12.45;;;;;;;3.92;100.00;102175.38;5244780;28;20031;-74
2023/02/01 06:52:04;;;;;;;38.78;8.95;;;;;;;3.94;100.00;102181.44;5244788;28;20557;-74
2023/02/01 06:54:37;;;;;;;51.55;14.35;;;;;;;3.89;100.00;102168.44;5244592;28;20024;-75
2023/02/01 06:57:07;;;;;;;31.08;5.53;;;;;;;3.89;100.00;102177.25;5243998;28;20489;-74
2023/02/01 06:59:38;;;;;;;37.17;10.80;;;;;;;3.84;100.00;102173.16;5251458;28;20024;-74
2023/02/01 07:02:11;;;;;;;56.13;14.90;;;;;;;3.78;100.00;102168.22;5252072;28;20030;-74
2023/02/01 07:04:42;;;;;;;61.15;14.93;;;;;;;3.72;100.00;102174.75;5256584;28;20055;-74
2023/02/01 07:07:13;;;;;;;40.03;11.32;;;;;;;3.68;100.00;102182.97;5243967;28;20024;-72
2023/02/01 07:09:43;;;;;;;40.97;8.27;;;;;;;3.67;100.00;102182.13;5245900;28;20074;-74
2023/02/01 07:12:14;;;;;;;55.10;16.05;;;;;;;3.71;100.00;102182.78;5251423;28;20016;-74
2023/02/01 07:14:44;;;;;;;40.75;10.88;;;;;;;3.72;100.00;102177.41;5252532;28;20028;-74
2023/02/01 07:17:15;;;;;;;34.85;7.65;;;;;;;3.76;100.00;102178.91;5266790;28;20024;-74
2023/02/01 07:19:45;;;;;;;38.70;7.93;;;;;;;3.76;100.00;102184.22;5251270;28;20032;-74
2023/02/01 07:22:17;;;;;;;46.03;10.93;;;;;;;3.74;100.00;102182.63;5249999;28;20103;-75
2023/02/01 07:24:47;;;;;;;41.72;10.02;;;;;;;3.76;100.00;102178.06;5251288;28;20032;-74
2023/02/01 07:27:18;;;;;;;31.98;8.93;;;;;;;3.74;100.00;102175.50;5249731;28;20032;-74
2023/02/01 07:29:48;;;;;;;31.30;7.50;;;;;;;3.76;100.00;102178.06;5249859;28;20032;-74
2023/02/01 07:32:19;;;;;;;36.58;7.40;;;;;;;3.78;100.00;102186.81;5250797;28;20373;-75
2023/02/01 07:34:49;;;;;;;28.85;4.43;;;;;;;3.86;100.00;102185.41;5251144;28;20536;-74
2023/02/01 07:37:20;;;;;;;23.45;5.90;;;;;;;3.89;100.00;102182.56;5250842;28;20392;-75
2023/02/01 07:39:51;;;;;;;35.80;5.38;;;;;;;3.93;100.00;102185.91;5251087;28;20392;-75
2023/02/01 07:42:21;;;;;;;42.47;9.85;;;;;;;3.94;100.00;102178.78;5250039;28;20055;-75
2023/02/01 07:44:52;;;;;;;28.40;6.63;;;;;;;4.01;100.00;102177.47;5250608;28;20064;-75
2023/02/01 07:47:22;;;;;;;43.08;11.50;;;;;;;4.02;100.00;102189.81;5263337;28;20024;-75
2023/02/01 07:49:53;;;;;;;85.63;26.45;;;;;;;4.05;100.00;102179.00;5252339;28;20071;-75
2023/02/01 07:52:23;;;;;;;106.97;31.05;;;;;;;4.11;100.00;102189.25;5249801;28;20016;-74
2023/02/01 07:54:54;;;;;;;64.07;16.75;;;;;;;4.13;100.00;102196.19;5251243;28;20091;-74
2023/02/01 07:57:24;;;;;;;115.22;33.88;;;;;;;4.21;100.00;102198.38;5249974;28;20509;-74
2023/02/01 08:02:44;;;;;;;77.13;16.40;;;;;;;4.51;100.00;102200.13;5252062;28;20024;-74
2023/02/01 08:05:14;;;;;;;61.05;11.95;;;;;;;4.64;100.00;102193.97;5249607;28;20397;-75
2023/02/01 08:07:48;;;;;;;47.85;11.15;;;;;;;4.69;100.00;102191.03;5249039;28;20027;-75
2023/02/01 08:10:19;;;;;;;63.75;15.68;;;;;;;4.77;100.00;102203.81;5249160;28;20135;-74
2023/02/01 08:12:51;;;;;;;58.13;13.70;;;;;;;4.81;100.00;102206.19;5249848;28;20111;-75
2023/02/01 08:15:22;;;;;;;51.92;13.27;;;;;;;4.89;100.00;102214.56;5256027;28;20016;-74
2023/02/01 08:17:54;;;;;;;42.42;10.23;;;;;;;4.87;100.00;102207.63;5259667;28;20103;-75
2023/02/01 08:20:25;;;;;;;44.45;8.38;;;;;;;4.92;100.00;102208.22;5248693;28;20028;-75
2023/02/01 08:22:56;;;;;;;33.95;7.32;;;;;;;4.89;100.00;102222.53;5244238;28;20496;-74
2023/02/01 08:25:27;;;;;;;34.65;8.95;;;;;;;4.90;100.00;102223.41;5245051;28;20021;-75
2023/02/01 08:27:58;;;;;;;39.25;7.10;;;;;;;4.92;100.00;102222.38;5245868;28;20020;-75
2023/02/01 08:30:28;;;;;;;25.45;5.40;;;;;;;4.93;100.00;102223.22;5244451;28;20016;-74
2023/02/01 08:32:59;;;;;;;41.38;8.40;;;;;;;4.93;100.00;102221.41;5246807;28;20043;-75
2023/02/01 08:35:29;;;;;;;31.73;7.75;;;;;;;4.98;100.00;102238.88;5259008;28;20033;-75
2023/02/01 08:38:00;;;;;;;35.70;6.97;;;;;;;4.94;100.00;102228.44;5247775;28;20095;-74
2023/02/01 08:40:31;;;;;;;36.97;6.10;;;;;;;4.98;100.00;102242.41;5257061;28;20127;-75
2023/02/01 08:43:01;;;;;;;29.52;5.60;;;;;;;5.01;100.00;102247.50;5244378;28;20020;-75
2023/02/01 08:45:32;;;;;;;27.05;3.65;;;;;;;5.05;100.00;102245.53;5245608;28;20705;-75
2023/02/01 08:48:03;;;;;;;54.67;18.00;;;;;;;5.12;100.00;102257.47;5245681;28;20024;-75
2023/02/01 08:50:33;;;;;;;29.45;9.07;;;;;;;5.17;100.00;102244.72;5256398;28;20094;-75
2023/02/01 08:53:04;;;;;;;26.33;4.28;;;;;;;5.25;100.00;102237.13;5245833;28;20377;-75
2023/02/01 08:55:34;;;;;;;30.05;5.40;;;;;;;5.27;100.00;102245.88;5245792;28;20389;-75
2023/02/01 08:58:04;;;;;;;32.72;7.72;;;;;;;5.29;100.00;102238.66;5252406;28;20081;-74
2023/02/01 09:00:35;;;;;;;26.42;6.78;;;;;;;5.43;100.00;102235.09;5263191;28;20025;-74
2023/02/01 09:03:06;;;;;;;37.95;9.45;;;;;;;5.40;100.00;102228.16;5245820;28;20059;-75
2023/02/01 09:05:36;;;;;;;51.42;16.75;;;;;;;5.45;100.00;102230.53;5259230;28;20166;-75
2023/02/01 09:08:07;;;;;;;27.20;6.90;;;;;;;5.48;100.00;102224.16;5244772;28;20025;-75
2023/02/01 09:10:37;;;;;;;41.80;9.10;;;;;;;5.53;100.00;102220.25;5245033;28;20459;-74
2023/02/01 09:13:08;;;;;;;33.45;7.05;;;;;;;5.58;100.00;102223.47;5245233;28;20112;-75
2023/02/01 09:15:39;;;;;;;33.80;6.53;;;;;;;5.76;100.00;102209.88;5254271;28;20408;-75
2023/02/01 09:18:09;;;;;;;34.22;5.47;;;;;;;5.90;100.00;102210.66;5253378;28;20016;-75
2023/02/01 09:20:40;;;;;;;34.83;5.80;;;;;;;6.14;100.00;102218.84;5246378;28;20028;-75
2023/02/01 09:23:10;;;;;;;37.35;6.28;;;;;;;6.32;100.00;102203.41;5251188;28;20023;-75
2023/02/01 09:25:41;;;;;;;22.52;4.90;;;;;;;6.34;100.00;102196.16;5244276;28;20024;-76
2023/02/01 09:28:11;;;;;;;31.67;7.97;;;;;;;6.48;100.00;102193.41;5244825;28;20024;-75
2023/02/01 09:30:42;;;;;;;37.00;6.70;;;;;;;6.73;100.00;102202.34;5248741;28;20024;-74
2023/02/01 09:33:12;;;;;;;31.08;6.00;;;;;;;7.00;100.00;102186.19;5244604;28;20520;-74
2023/02/01 09:35:44;;;;;;;31.48;5.68;;;;;;;7.17;100.00;102188.47;5244449;28;20051;-75
2023/02/01 09:38:14;;;;;;;29.63;4.72;;;;;;;7.15;100.00;102189.56;5244729;28;20074;-75
2023/02/01 09:40:47;;;;;;;30.35;5.03;;;;;;;7.42;100.00;102205.38;5245029;28;20020;-75
2023/02/01 09:43:40;;;;;;;24.00;5.15;;;;;;;7.74;100.00;102201.19;5257548;28;20020;-75
2023/02/01 09:46:27;;;;;;;28.85;6.80;;;;;;;7.98;100.00;102186.91;5260434;28;20028;-74
2023/02/01 09:49:04;;;;;;;30.05;6.70;;;;;;;8.01;100.00;102190.22;5252755;28;20397;-74
2023/02/01 09:51:38;;;;;;;26.90;5.00;;;;;;;8.21;100.00;102193.19;5244550;28;20480;-75
2023/02/01 09:54:15;;;;;;;24.10;4.35;;;;;;;8.25;100.00;102200.00;5245188;28;20029;-75
2023/02/01 09:56:50;;;;;;;28.17;5.00;;;;;;;8.21;100.00;102195.88;5256058;28;20482;-75
2023/02/01 09:59:30;;;;;;;31.88;4.72;;;;;;;8.26;100.00;102202.56;5249029;28;20028;-75
2023/02/01 10:02:04;;;;;;;27.52;5.40;;;;;;;8.40;100.00;102203.34;5264795;28;20024;-75
2023/02/01 10:04:34;;;;;;;22.08;4.57;;;;;;;8.46;100.00;102203.72;5256449;28;20032;-75
2023/02/01 10:07:23;;;;;;;31.27;6.03;;;;;;;8.66;100.00;102204.00;5243821;28;20508;-75
2023/02/01 10:10:30;;;;;;;37.33;8.23;;;;;;;8.80;100.00;102199.25;5242622;28;20024;-75
2023/02/01 10:13:00;;;;;;;;;;;;;;;9.08;100.00;102197.88;5244171;28;20035;-75
2023/02/01 10:15:47;;;;;;;37.25;9.43;;;;;;;9.26;100.00;102192.88;5250380;28;19904;-75
2023/02/01 10:18:44;;;;;;;44.25;5.45;;;;;;;9.28;100.00;102195.41;5248659;28;20032;-75
2023/02/01 10:21:38;;;;;;;30.55;5.90;;;;;;;8.97;100.00;102197.03;5243658;28;20051;-75
2023/02/01 10:24:34;;;;;;;43.00;9.77;;;;;;;8.73;100.00;102203.38;5244303;28;20032;-75
2023/02/01 10:27:06;;;;;;;37.75;10.57;;;;;;;8.67;100.00;102203.84;5243720;28;20031;-75
2023/02/01 10:29:39;;;;;;;30.98;5.55;;;;;;;8.58;100.00;102207.25;5243016;28;20416;-75
2023/02/01 10:32:15;;;;;;;29.17;6.45;;;;;;;8.57;100.00;102209.06;5243621;28;20028;-75
2023/02/01 10:34:52;;;;;;;33.38;6.22;;;;;;;8.67;100.00;102206.53;5243781;28;20036;-75
2023/02/01 10:37:28;;;;;;;30.77;6.95;;;;;;;8.88;100.00;102203.13;5243537;28;20027;-75
2023/02/01 10:40:02;;;;;;;25.27;4.75;;;;;;;8.90;100.00;102219.94;5241912;28;20066;-76
2023/02/01 10:42:33;;;;;;;21.48;4.63;;;;;;;8.86;100.00;102210.44;5243731;28;20370;-75
2023/02/01 10:45:04;;;;;;;30.02;4.65;;;;;;;9.01;100.00;102214.56;5241856;28;20039;-75
2023/02/01 10:47:34;;;;;;;19.55;3.35;;;;;;;9.17;100.00;102222.22;5243383;28;20029;-75
2023/02/01 10:50:32;;;;;;;30.58;5.78;;;;;;;9.36;100.00;102218.91;5243231;28;20404;-75
2023/02/01 10:53:10;;;;;;;21.27;3.80;;;;;;;9.50;100.00;102214.13;5243396;28;20103;-75
2023/02/01 10:56:16;;;;;;;23.02;4.45;;;;;;;9.56;100.00;102220.81;5243484;28;20012;-75
2023/02/01 10:58:47;;;;;;;21.00;3.67;;;;;;;9.56;100.00;102216.28;5243672;28;20514;-75
2023/02/01 11:01:24;;;;;;;25.60;3.38;;;;;;;9.30;100.00;102197.00;5242981;28;20107;-75
2023/02/01 11:03:57;;;;;;;20.77;3.50;;;;;;;9.25;100.00;102193.00;5257126;28;20035;-75
2023/02/01 11:06:45;;;;;;;24.27;4.47;;;;;;;9.12;100.00;102194.97;5243248;28;20028;-75
2023/02/01 11:09:20;;;;;;;23.33;3.90;;;;;;;8.98;100.00;102170.16;5243054;28;20032;-75
2023/02/01 11:11:50;;;;;;;;;;;;;;;8.99;100.00;102169.19;5243434;28;20028;-75
2023/02/01 11:14:39;;;;;;;20.60;9.05;;;;;;;9.21;100.00;102179.00;5243449;28;19915;-75
2023/02/01 11:17:24;;;;;;;14.40;3.90;;;;;;;9.13;100.00;102172.56;5257113;28;20036;-75
2023/02/01 11:19:58;;;;;;;25.15;6.50;;;;;;;8.96;100.00;102164.06;5241748;28;20489;-75
2023/02/01 11:22:29;;;;;;;22.08;2.90;;;;;;;8.82;100.00;102172.34;5243339;28;20028;-75
2023/02/01 11:25:07;;;;;;;24.08;4.28;;;;;;;8.97;100.00;102160.41;5242904;28;20052;-76
2023/02/01 11:27:38;;;;;;;30.90;11.63;;;;;;;9.29;100.00;102156.97;5243055;28;20469;-75
2023/02/01 11:30:16;;;;;;;37.53;11.35;;;;;;;9.54;100.00;102169.19;5242640;28;20036;-75
2023/02/01 11:32:48;;;;;;;19.77;7.40;;;;;;;9.50;100.00;102163.22;5243491;28;20035;-75
2023/02/01 11:35:21;;;;;;;19.13;4.68;;;;;;;9.23;100.00;102163.66;5243417;28;20408;-74
2023/02/01 11:37:58;;;;;;;38.00;16.35;;;;;;;9.26;100.00;102167.91;5242645;28;20052;-76
2023/02/01 11:40:35;;;;;;;22.75;7.63;;;;;;;9.11;100.00;102153.97;5241145;28;20036;-75
2023/02/01 11:43:15;;;;;;;29.35;8.48;;;;;;;9.10;100.00;102162.13;5242872;28;20025;-75
2023/02/01 11:46:12;;;;;;;36.42;14.13;;;;;;;8.99;100.00;102161.16;5242988;28;20040;-75
2023/02/01 11:48:43;;;;;;;23.65;6.40;;;;;;;9.08;100.00;102148.84;5242358;28;20024;-75
2023/02/01 11:51:42;;;;;;;23.13;6.95;;;;;;;9.07;100.00;102153.34;5242383;28;20103;-75
2023/02/01 11:54:29;;;;;;;19.73;4.90;;;;;;;9.13;100.00;102148.47;5241727;28;20095;-74
2023/02/01 11:57:17;;;;;;;32.40;7.55;;;;;;;9.03;100.00;102154.56;5244813;28;20032;-75
2023/02/01 12:00:18;;;;;;;30.83;8.40;;;;;;;8.92;100.00;102151.91;5254945;28;20016;-75
2023/02/01 12:03:06;;;;;;;36.08;13.10;;;;;;;8.89;100.00;102144.16;5247586;28;20031;-75
2023/02/01 12:05:55;;;;;;;30.67;11.45;;;;;;;8.74;100.00;102148.06;5258979;28;20039;-75
2023/02/01 12:08:59;;;;;;;25.40;8.65;;;;;;;8.65;100.00;102138.94;5246132;28;20028;-75
2023/02/01 12:11:30;;;;;;;15.82;4.85;;;;;;;8.57;100.00;102136.00;5245995;28;20111;-74
2023/02/01 12:14:17;;;;;;;23.88;10.73;;;;;;;8.58;100.00;102132.34;5246687;28;20021;-75